createdAt,value
2019-01-23T00:00:38.167Z,195.37
2019-01-23T00:03:06.955Z,173.90
2019-01-23T00:05:35.743Z,181.90
2019-01-23T00:08:05.147Z,194.70
2019-01-23T00:10:33.834Z,190.13
2019-01-23T00:13:03.544Z,189.30
2019-01-23T00:15:32.538Z,186.07
2019-01-23T00:18:01.327Z,180.93
2019-01-23T00:20:30.200Z,177.17
2019-01-23T00:22:59.009Z,183.17
2019-01-23T00:25:27.801Z,182.37
2019-01-23T00:27:56.689Z,178.67
2019-01-23T00:30:25.583Z,167.23
2019-01-23T00:32:54.240Z,157.67
2019-01-23T00:35:23.038Z,158.97
2019-01-23T00:37:51.843Z,157.93
2019-01-23T00:40:20.506Z,174.00
2019-01-23T00:42:50.239Z,175.97
2019-01-23T00:45:19.029Z,165.80
2019-01-23T00:47:47.920Z,173.67
2019-01-23T00:50:16.708Z,179.80
2019-01-23T00:52:45.484Z,173.70
2019-01-23T00:55:18.364Z,164.63
2019-01-23T00:57:47.174Z,182.63
2019-01-23T01:00:24.666Z,174.30
2019-01-23T01:02:53.531Z,166.43
2019-01-23T01:05:22.447Z,167.60
2019-01-23T01:07:52.700Z,169.47
2019-01-23T01:10:21.664Z,144.57
2019-01-23T01:12:53.629Z,151.37
2019-01-23T01:15:22.415Z,154.30
2019-01-23T01:17:51.230Z,158.07
2019-01-23T01:20:20.004Z,158.43
2019-01-23T01:22:48.891Z,177.27
2019-01-23T01:25:18.485Z,158.57
2019-01-23T01:27:47.387Z,165.40
2019-01-23T01:30:18.834Z,157.47
2019-01-23T01:32:47.519Z,155.50
2019-01-23T01:35:16.211Z,149.27
2019-01-23T01:37:45.000Z,154.20
2019-01-23T01:40:15.642Z,159.77
2019-01-23T01:42:44.295Z,151.93
2019-01-23T01:45:15.106Z,165.33
2019-01-23T01:47:43.943Z,148.13
2019-01-23T01:50:14.985Z,143.17
2019-01-23T01:52:43.774Z,154.53
2019-01-23T01:55:12.559Z,149.93
2019-01-23T01:57:41.351Z,153.27
2019-01-23T02:00:13.208Z,149.87
2019-01-23T02:02:41.998Z,151.43
2019-01-23T02:05:10.788Z,154.40
2019-01-23T02:07:39.654Z,159.70
2019-01-23T02:10:13.586Z,156.77
2019-01-23T02:12:42.375Z,155.23
2019-01-23T02:15:12.364Z,146.53
2019-01-23T02:17:41.080Z,147.80
2019-01-23T02:20:13.358Z,157.67
2019-01-23T02:22:42.241Z,147.30
2019-01-23T02:25:10.936Z,149.17
2019-01-23T02:27:39.719Z,140.53
2019-01-23T02:30:14.759Z,137.07
2019-01-23T02:32:43.645Z,133.73
2019-01-23T02:35:12.432Z,128.30
2019-01-23T02:37:41.334Z,144.40
2019-01-23T02:40:16.154Z,139.10
2019-01-23T02:42:45.160Z,137.63
2019-01-23T02:45:14.117Z,140.70
2019-01-23T02:47:42.931Z,142.30
2019-01-23T02:50:12.233Z,139.03
2019-01-23T02:52:41.033Z,158.17
2019-01-23T02:55:11.124Z,137.90
2019-01-23T02:57:39.928Z,140.07
2019-01-23T03:00:11.965Z,116.40
2019-01-23T03:02:40.681Z,113.70
2019-01-23T03:05:12.442Z,116.33
2019-01-23T03:07:41.230Z,121.90
2019-01-23T03:10:12.484Z,110.37
2019-01-23T03:12:41.368Z,111.80
2019-01-23T03:15:12.412Z,113.93
2019-01-23T03:17:41.048Z,111.00
2019-01-23T03:20:12.073Z,108.57
2019-01-23T03:22:40.830Z,100.73
2019-01-23T03:25:11.049Z,101.77
2019-01-23T03:27:39.946Z,105.97
2019-01-23T03:30:11.594Z,103.50
2019-01-23T03:32:40.606Z,107.10
2019-01-23T03:35:10.103Z,113.67
2019-01-23T03:37:38.761Z,113.67
2019-01-23T03:40:10.641Z,105.93
2019-01-23T03:42:39.633Z,101.73
2019-01-23T03:45:10.470Z,105.53
2019-01-23T03:47:39.268Z,100.93
2019-01-23T03:50:11.840Z,100.17
2019-01-23T03:52:40.523Z,104.10
2019-01-23T03:55:10.578Z,120.30
2019-01-23T03:57:59.720Z,121.00
2019-01-23T04:00:28.395Z,133.23
2019-01-23T04:02:57.299Z,125.87
2019-01-23T04:05:26.175Z,127.63
2019-01-23T04:07:54.973Z,133.50
2019-01-23T04:10:23.860Z,138.13
2019-01-23T04:12:52.855Z,160.87
2019-01-23T04:15:21.641Z,162.87
2019-01-23T04:17:50.429Z,151.23
2019-01-23T04:20:21.031Z,215.30
2019-01-23T04:22:50.280Z,223.87
2019-01-23T04:25:19.048Z,263.07
2019-01-23T04:27:47.915Z,238.93
2019-01-23T04:30:24.105Z,234.67
2019-01-23T04:32:52.860Z,202.47
2019-01-23T04:35:21.577Z,203.13
2019-01-23T04:37:50.362Z,218.03
2019-01-23T04:40:19.256Z,227.10
2019-01-23T04:42:48.045Z,219.90
2019-01-23T04:45:17.450Z,224.57
2019-01-23T04:47:46.236Z,217.10
2019-01-23T04:50:16.422Z,227.80
2019-01-23T04:53:01.952Z,216.27
2019-01-23T04:55:30.627Z,213.63
2019-01-23T04:57:59.300Z,227.80
2019-01-23T05:00:29.740Z,226.03
2019-01-23T05:02:58.548Z,229.40
2019-01-23T05:05:27.304Z,246.37
2019-01-23T05:07:56.215Z,248.67
2019-01-23T05:10:25.003Z,247.20
2019-01-23T05:12:53.897Z,209.47
2019-01-23T05:15:22.790Z,203.90
2019-01-23T05:17:51.699Z,202.97
2019-01-23T05:20:20.338Z,204.73
2019-01-23T05:22:49.121Z,201.77
2019-01-23T05:25:17.818Z,214.93
2019-01-23T05:27:46.621Z,206.80
2019-01-23T05:30:20.842Z,218.47
2019-01-23T05:32:49.628Z,233.93
2019-01-23T05:35:18.629Z,242.53
2019-01-23T05:37:47.512Z,236.00
2019-01-23T05:40:16.200Z,258.13
2019-01-23T05:42:44.841Z,293.70
2019-01-23T05:45:14.839Z,276.60
2019-01-23T05:47:43.590Z,295.13
2019-01-23T05:50:16.694Z,300.23
2019-01-23T05:52:45.719Z,273.23
2019-01-23T05:55:14.665Z,266.10
2019-01-23T05:57:43.353Z,277.60
2019-01-23T06:00:17.580Z,285.70
2019-01-23T06:02:46.334Z,312.50
2019-01-23T06:05:17.384Z,317.77
2019-01-23T06:07:46.170Z,289.30
2019-01-23T06:10:15.079Z,269.70
2019-01-23T06:12:43.751Z,276.23
2019-01-23T06:15:16.448Z,261.63
2019-01-23T06:17:45.078Z,263.67
2019-01-23T06:20:16.262Z,276.67
2019-01-23T06:22:46.304Z,278.60
2019-01-23T06:25:15.669Z,319.80
2019-01-23T06:27:44.494Z,297.27
2019-01-23T06:30:16.246Z,292.77
2019-01-23T06:32:44.943Z,356.83
2019-01-23T06:35:13.721Z,281.90
2019-01-23T06:37:42.495Z,269.20
2019-01-23T06:40:13.042Z,274.70
2019-01-23T06:42:41.802Z,202.83
2019-01-23T06:45:18.603Z,273.87
2019-01-23T06:47:48.108Z,253.87
2019-01-23T06:50:19.124Z,281.83
2019-01-23T06:52:47.941Z,269.73
2019-01-23T06:55:16.728Z,281.40
2019-01-23T06:57:45.624Z,295.93
2019-01-23T07:00:17.502Z,284.97
2019-01-23T07:02:46.784Z,272.67
2019-01-23T07:05:15.536Z,255.83
2019-01-23T07:07:44.565Z,330.07
2019-01-23T07:10:21.731Z,297.50
2019-01-23T07:12:50.570Z,176.00
2019-01-23T07:15:19.634Z,132.93
2019-01-23T07:17:48.321Z,222.33
2019-01-23T07:20:24.758Z,146.37
2019-01-23T07:22:53.886Z,118.43
2019-01-23T07:25:22.552Z,126.57
2019-01-23T07:27:51.363Z,145.87
2019-01-23T07:30:25.787Z,145.70
2019-01-23T07:32:54.571Z,135.03
2019-01-23T07:35:23.362Z,129.83
2019-01-23T07:37:52.253Z,169.33
2019-01-23T07:40:21.249Z,159.07
2019-01-23T07:42:50.141Z,147.33
2019-01-23T07:45:21.897Z,158.80
2019-01-23T07:47:50.790Z,167.87
2019-01-23T07:50:19.564Z,162.77
2019-01-23T07:52:48.365Z,192.13
2019-01-23T07:55:19.652Z,169.93
2019-01-23T07:57:48.417Z,188.53
2019-01-23T08:00:19.046Z,168.97
2019-01-23T08:02:48.947Z,193.93
2019-01-23T08:05:20.075Z,176.63
2019-01-23T08:07:48.880Z,166.50
2019-01-23T08:10:18.912Z,180.80
2019-01-23T08:12:55.146Z,175.53
2019-01-23T08:15:32.921Z,204.67
2019-01-23T08:18:02.363Z,202.00
2019-01-23T08:20:32.081Z,212.57
2019-01-23T08:23:00.970Z,220.80
2019-01-23T08:25:29.622Z,209.53
2019-01-23T08:27:58.361Z,214.73
2019-01-23T08:30:27.696Z,212.57
2019-01-23T08:32:56.634Z,196.53
2019-01-23T08:35:25.730Z,209.67
2019-01-23T08:37:54.843Z,220.43
2019-01-23T08:40:23.607Z,195.37
2019-01-23T08:42:52.526Z,196.40
2019-01-23T08:45:21.278Z,228.83
2019-01-23T08:47:50.192Z,238.43
2019-01-23T08:50:30.860Z,217.00
2019-01-23T08:52:59.541Z,210.47
2019-01-23T08:55:28.205Z,183.07
2019-01-23T08:57:57.017Z,181.37
2019-01-23T09:00:25.685Z,182.27
2019-01-23T09:02:54.494Z,183.87
2019-01-23T09:05:23.388Z,189.07
2019-01-23T09:07:52.055Z,209.07
2019-01-23T09:10:28.056Z,183.23
2019-01-23T09:12:56.818Z,180.17
2019-01-23T09:15:25.586Z,153.27
2019-01-23T09:17:54.392Z,162.63
2019-01-23T09:20:23.496Z,157.13
2019-01-23T09:22:52.153Z,197.70
2019-01-23T09:25:23.424Z,180.70
2019-01-23T09:27:52.189Z,178.97
2019-01-23T09:30:30.010Z,172.93
2019-01-23T09:33:24.299Z,172.53
2019-01-23T09:36:15.615Z,168.57
2019-01-23T09:38:47.475Z,178.07
2019-01-23T09:41:28.457Z,179.60
2019-01-23T09:44:18.131Z,173.70
2019-01-23T09:47:10.863Z,185.50
2019-01-23T09:49:51.666Z,199.00
2019-01-23T09:52:48.733Z,181.80
2019-01-23T09:55:17.483Z,194.53
2019-01-23T09:57:46.585Z,167.20
2019-01-23T10:00:21.174Z,176.90
2019-01-23T10:02:49.897Z,203.10
2019-01-23T10:05:18.689Z,181.57
2019-01-23T10:07:47.483Z,176.10
2019-01-23T10:10:18.225Z,181.37
2019-01-23T10:12:47.106Z,190.13
2019-01-23T10:15:30.739Z,203.33
2019-01-23T10:17:59.629Z,187.63
2019-01-23T10:20:28.522Z,190.27
2019-01-23T10:22:57.240Z,193.27
2019-01-23T10:25:25.926Z,199.97
2019-01-23T10:27:54.579Z,195.27
2019-01-23T10:30:23.282Z,190.07
2019-01-23T10:32:52.063Z,184.63
2019-01-23T10:35:20.964Z,210.60
2019-01-23T10:37:49.843Z,230.57
2019-01-23T10:40:19.201Z,197.20
2019-01-23T10:42:47.932Z,218.80
2019-01-23T10:45:16.718Z,220.23
2019-01-23T10:47:45.426Z,220.47
2019-01-23T10:50:15.787Z,235.23
2019-01-23T10:52:45.031Z,216.23
2019-01-23T10:55:13.818Z,218.93
2019-01-23T10:57:42.607Z,208.93
2019-01-23T11:00:22.100Z,218.80
2019-01-23T11:02:50.816Z,214.23
2019-01-23T11:05:23.658Z,225.47
2019-01-23T11:07:53.435Z,228.07
2019-01-23T11:10:26.216Z,215.43
2019-01-23T11:12:54.887Z,221.97
2019-01-23T11:15:23.666Z,234.43
2019-01-23T11:17:52.484Z,230.30
2019-01-23T11:20:21.488Z,225.30
2019-01-23T11:22:50.362Z,236.43
2019-01-23T11:25:19.151Z,225.77
2019-01-23T11:27:47.837Z,238.00
2019-01-23T11:30:22.156Z,223.37
2019-01-23T11:32:50.945Z,234.70
2019-01-23T11:35:19.606Z,236.70
2019-01-23T11:37:48.419Z,231.90
2019-01-23T11:40:19.974Z,231.77
2019-01-23T11:42:48.765Z,212.90
2019-01-23T11:45:17.550Z,212.43
2019-01-23T11:47:46.236Z,207.47
2019-01-23T11:50:21.815Z,210.97
2019-01-23T11:52:47.381Z,197.37
2019-01-23T11:55:16.173Z,205.50
2019-01-23T11:57:44.850Z,207.40
2019-01-23T12:00:16.430Z,215.77
2019-01-23T12:02:45.113Z,219.33
2019-01-23T12:05:16.065Z,210.83
2019-01-23T12:07:44.787Z,207.80
2019-01-23T12:10:18.320Z,208.40
2019-01-23T12:12:47.005Z,205.83
2019-01-23T12:15:23.268Z,215.10
2019-01-23T12:17:52.336Z,211.60
2019-01-23T12:20:21.484Z,214.67
2019-01-23T12:22:50.262Z,221.60
2019-01-23T12:25:18.964Z,204.33
2019-01-23T12:27:47.857Z,241.17
2019-01-23T12:30:31.431Z,236.77
2019-01-23T12:33:00.330Z,239.83
2019-01-23T12:35:29.067Z,222.20
2019-01-23T12:37:58.982Z,236.63
2019-01-23T12:40:27.667Z,227.63
2019-01-23T12:42:56.457Z,238.07
2019-01-23T12:45:27.137Z,249.13
2019-01-23T12:47:55.897Z,291.97
2019-01-23T12:50:27.719Z,340.43
2019-01-23T12:52:56.536Z,349.20
2019-01-23T12:55:25.218Z,315.10
2019-01-23T12:57:53.917Z,341.80
2019-01-23T13:00:27.095Z,309.73
2019-01-23T13:02:55.888Z,318.03
2019-01-23T13:05:24.671Z,332.07
2019-01-23T13:07:53.462Z,341.43
2019-01-23T13:10:23.686Z,352.40
2019-01-23T13:12:53.091Z,325.23
2019-01-23T13:15:23.798Z,342.20
2019-01-23T13:17:52.488Z,329.00
2019-01-23T13:20:22.861Z,319.97
2019-01-23T13:22:51.833Z,323.50
2019-01-23T13:25:23.281Z,354.67
2019-01-23T13:27:52.168Z,321.67
2019-01-23T13:30:22.904Z,293.27
2019-01-23T13:32:51.588Z,300.43
2019-01-23T13:35:23.019Z,295.93
2019-01-23T13:37:51.827Z,268.53
2019-01-23T13:40:31.848Z,316.03
2019-01-23T13:43:00.670Z,286.90
2019-01-23T13:45:29.457Z,278.43
2019-01-23T13:47:58.350Z,296.70
2019-01-23T13:50:27.114Z,259.40
2019-01-23T13:52:55.827Z,286.60
2019-01-23T13:55:24.921Z,293.47
2019-01-23T13:57:53.711Z,260.17
2019-01-23T14:00:40.534Z,292.07
2019-01-23T14:04:05.845Z,324.30
2019-01-23T14:06:34.627Z,309.63
2019-01-23T14:09:04.557Z,299.53
2019-01-23T14:11:33.536Z,267.03
2019-01-23T14:14:02.322Z,286.40
2019-01-23T14:16:31.015Z,273.03
2019-01-23T14:18:59.808Z,305.73
2019-01-23T14:21:28.694Z,302.43
2019-01-23T14:23:57.573Z,289.13
2019-01-23T14:26:26.459Z,290.83
2019-01-23T14:28:55.372Z,322.50
2019-01-23T14:31:24.256Z,360.53
2019-01-23T14:33:53.025Z,357.20
2019-01-23T14:36:21.825Z,371.60
2019-01-23T14:38:50.668Z,342.00
2019-01-23T14:41:19.825Z,344.07
2019-01-23T14:43:48.713Z,358.67
2019-01-23T14:46:17.398Z,351.50
2019-01-23T14:48:46.273Z,329.17
2019-01-23T14:51:14.976Z,357.10
2019-01-23T14:53:43.666Z,333.83
2019-01-23T14:56:12.532Z,346.87
2019-01-23T14:58:41.223Z,344.07
2019-01-23T15:01:09.903Z,341.90
2019-01-23T15:03:38.714Z,366.40
2019-01-23T15:06:07.402Z,363.23
2019-01-23T15:08:36.087Z,359.27
2019-01-23T15:11:04.979Z,361.00
2019-01-23T15:13:33.768Z,332.07
2019-01-23T15:16:02.454Z,380.80
2019-01-23T15:18:31.255Z,332.43
2019-01-23T15:20:59.930Z,358.97
2019-01-23T15:23:28.720Z,367.10
2019-01-23T15:25:57.777Z,363.10
2019-01-23T15:28:26.500Z,387.33
2019-01-23T15:33:55.210Z,392.13
2019-01-23T15:36:24.182Z,394.50
2019-01-23T15:38:52.890Z,401.40
2019-01-23T15:41:21.561Z,392.60
2019-01-23T15:43:51.391Z,408.13
2019-01-23T15:46:20.160Z,399.00
2019-01-23T15:48:49.069Z,427.50
2019-01-23T15:51:18.576Z,398.97
2019-01-23T15:53:47.238Z,418.13
2019-01-23T15:56:15.948Z,419.83
2019-01-23T15:58:44.945Z,407.10
2019-01-23T16:01:13.732Z,411.43
2019-01-23T16:03:42.416Z,422.07
2019-01-23T16:06:11.317Z,428.83
2019-01-23T16:08:40.105Z,451.57
2019-01-23T16:11:08.994Z,445.80
2019-01-23T16:13:42.226Z,436.83
2019-01-23T16:16:08.308Z,463.80
2019-01-23T16:18:36.991Z,448.90
2019-01-23T16:21:05.787Z,430.50
2019-01-23T16:23:34.591Z,479.53
2019-01-23T16:26:03.334Z,480.30
2019-01-23T16:28:32.179Z,474.60
2019-01-23T16:31:01.038Z,508.07
2019-01-23T16:33:29.827Z,491.40
2019-01-23T16:35:58.825Z,501.97
2019-01-23T16:38:27.715Z,490.53
2019-01-23T16:40:56.400Z,516.97
2019-01-23T16:43:25.290Z,501.83
2019-01-23T16:45:54.078Z,513.40
2019-01-23T16:48:22.868Z,544.80
2019-01-23T16:50:51.659Z,515.20
2019-01-23T16:53:20.446Z,509.73
2019-01-23T16:55:49.240Z,512.23
2019-01-23T16:58:18.025Z,508.53
2019-01-23T17:00:46.815Z,510.53
2019-01-23T17:03:15.707Z,504.27
2019-01-23T17:05:44.495Z,499.83
2019-01-23T17:08:13.281Z,531.83
2019-01-23T17:10:42.173Z,506.47
2019-01-23T17:13:17.337Z,513.63
2019-01-23T17:15:47.849Z,512.40
2019-01-23T17:18:16.714Z,511.93
2019-01-23T17:20:45.831Z,507.40
2019-01-23T17:23:17.670Z,499.30
2019-01-23T17:25:46.385Z,498.03
2019-01-23T17:28:15.252Z,505.33
2019-01-23T17:30:44.168Z,496.40
2019-01-23T17:33:13.813Z,499.03
2019-01-23T17:35:42.555Z,498.57
2019-01-23T17:38:17.188Z,488.37
2019-01-23T17:40:46.345Z,469.70
2019-01-23T17:43:15.786Z,477.33
2019-01-23T17:45:44.880Z,495.00
2019-01-23T17:48:13.673Z,489.40
2019-01-23T17:50:42.458Z,487.77
2019-01-23T17:53:11.256Z,483.53
2019-01-23T17:55:40.437Z,490.90
2019-01-23T17:58:10.691Z,475.83
2019-01-23T18:03:35.279Z,484.87
2019-01-23T18:06:04.172Z,484.77
2019-01-23T18:08:32.860Z,496.43
2019-01-23T18:11:01.648Z,478.50
2019-01-23T18:13:30.434Z,512.73
2019-01-23T18:16:01.901Z,480.37
2019-01-23T18:18:30.785Z,488.03
2019-01-23T18:20:59.770Z,472.67
2019-01-23T18:23:28.546Z,486.30
2019-01-23T18:25:57.451Z,489.57
2019-01-23T18:28:48.034Z,477.43
2019-01-23T18:31:20.014Z,467.90
2019-01-23T18:34:06.830Z,456.17
2019-01-23T18:36:47.631Z,444.30
2019-01-23T18:39:37.481Z,433.53
2019-01-23T18:42:09.589Z,457.53
2019-01-23T18:44:44.159Z,450.50
2019-01-23T18:47:21.852Z,495.17
2019-01-23T18:50:17.666Z,464.17
2019-01-23T18:52:46.479Z,455.20
2019-01-23T18:55:17.114Z,446.43
2019-01-23T18:57:46.413Z,433.53
2019-01-23T19:00:18.481Z,447.27
2019-01-23T19:02:49.725Z,447.17
2019-01-23T19:05:19.854Z,442.60
2019-01-23T19:07:48.861Z,449.37
2019-01-23T19:10:18.645Z,450.63
2019-01-23T19:12:47.649Z,426.60
2019-01-23T19:15:20.065Z,425.60
2019-01-23T19:17:48.807Z,435.57
2019-01-23T19:20:21.566Z,429.67
2019-01-23T19:22:50.417Z,409.50
2019-01-23T19:25:19.270Z,449.83
2019-01-23T19:27:48.265Z,397.10
2019-01-23T19:30:21.667Z,425.93
2019-01-23T19:32:50.556Z,438.83
2019-01-23T19:35:19.417Z,417.50
2019-01-23T19:37:48.136Z,403.30
2019-01-23T19:40:16.904Z,382.30
2019-01-23T19:43:00.664Z,377.00
2019-01-23T19:45:30.900Z,333.13
2019-01-23T19:47:59.779Z,320.03
2019-01-23T19:50:28.670Z,322.73
2019-01-23T19:52:57.560Z,335.80
2019-01-23T19:55:28.256Z,419.43
2019-01-23T19:57:56.879Z,408.97
2019-01-23T20:00:25.567Z,323.63
2019-01-23T20:02:54.557Z,340.83
2019-01-23T20:05:25.119Z,267.73
2019-01-23T20:07:53.877Z,196.13
2019-01-23T20:10:24.369Z,167.93
2019-01-23T20:12:53.191Z,168.23
2019-01-23T20:15:22.193Z,171.33
2019-01-23T20:18:10.919Z,173.57
2019-01-23T20:20:39.425Z,143.07
2019-01-23T20:23:08.329Z,147.50
2019-01-23T20:25:37.216Z,162.00
2019-01-23T20:28:06.546Z,171.73
2019-01-23T20:30:36.848Z,124.30
2019-01-23T20:33:06.237Z,119.30
2019-01-23T20:35:35.002Z,108.50
2019-01-23T20:38:04.023Z,113.70
2019-01-23T20:40:32.806Z,116.47
2019-01-23T20:43:01.697Z,113.83
2019-01-23T20:45:34.980Z,114.17
2019-01-23T20:48:04.374Z,112.83
2019-01-23T20:50:33.290Z,101.37
2019-01-23T20:53:02.179Z,105.43
2019-01-23T20:55:30.948Z,104.33
2019-01-23T20:57:59.754Z,101.80
2019-01-23T21:00:30.782Z,106.23
2019-01-23T21:02:59.488Z,97.13
2019-01-23T21:05:28.170Z,92.97
2019-01-23T21:07:56.962Z,102.77
2019-01-23T21:10:27.289Z,99.63
2019-01-23T21:12:56.051Z,107.40
2019-01-23T21:15:29.494Z,116.90
2019-01-23T21:17:58.157Z,111.57
2019-01-23T21:20:27.656Z,102.23
2019-01-23T21:22:56.530Z,87.83
2019-01-23T21:25:25.857Z,87.37
2019-01-23T21:27:54.620Z,96.87
2019-01-23T21:30:25.258Z,93.97
2019-01-23T21:32:54.443Z,92.57
2019-01-23T21:35:23.276Z,97.80
2019-01-23T21:38:12.768Z,112.30
2019-01-23T21:40:38.357Z,108.77
2019-01-23T21:43:07.565Z,123.10
2019-01-23T21:45:36.751Z,119.67
2019-01-23T21:51:05.911Z,108.73
2019-01-23T21:53:34.473Z,100.77
2019-01-23T21:56:14.524Z,102.23
2019-01-23T21:58:43.291Z,91.17
2019-01-23T22:01:12.153Z,90.97
2019-01-23T22:03:40.859Z,85.80
2019-01-23T22:06:09.677Z,95.53
2019-01-23T22:08:38.448Z,91.80
2019-01-23T22:11:07.133Z,91.53
2019-01-23T22:13:36.029Z,104.20
2019-01-23T22:16:06.046Z,98.70
2019-01-23T22:18:41.621Z,106.70
2019-01-23T22:21:10.521Z,104.40
2019-01-23T22:23:39.477Z,99.33
2019-01-23T22:26:08.269Z,109.13
2019-01-23T22:28:36.952Z,112.93
2019-01-23T22:31:06.637Z,119.23
2019-01-23T22:33:35.552Z,105.57
2019-01-23T22:36:04.444Z,93.50
2019-01-23T22:38:33.113Z,99.37
2019-01-23T22:41:01.920Z,105.30
2019-01-23T22:43:30.810Z,106.63
2019-01-23T22:45:59.470Z,91.23
2019-01-23T22:48:28.393Z,103.27
2019-01-23T22:50:57.051Z,93.90
2019-01-23T22:53:25.760Z,104.23
2019-01-23T22:55:54.755Z,109.17
2019-01-23T22:58:23.543Z,106.97
2019-01-23T23:01:06.879Z,109.63
2019-01-23T23:06:26.365Z,110.57
2019-01-23T23:08:55.155Z,100.90
2019-01-23T23:11:23.841Z,95.93
2019-01-23T23:13:52.736Z,95.47
2019-01-23T23:16:23.859Z,105.57
2019-01-23T23:19:01.456Z,93.50
2019-01-23T23:21:30.158Z,92.57
2019-01-23T23:23:58.953Z,87.37
2019-01-23T23:26:28.153Z,89.80
2019-01-23T23:28:56.834Z,90.70
2019-01-23T23:31:25.519Z,83.03
2019-01-23T23:33:54.414Z,79.97
2019-01-23T23:36:23.097Z,68.60
2019-01-23T23:38:51.771Z,70.50
2019-01-23T23:41:20.577Z,67.77
2019-01-23T23:43:49.258Z,77.30
2019-01-23T23:46:18.032Z,74.63
2019-01-23T23:48:46.818Z,65.27
2019-01-23T23:51:15.525Z,60.37
2019-01-23T23:53:44.519Z,68.50
2019-01-23T23:56:13.288Z,76.53
2019-01-23T23:58:42.094Z,68.60
